Burton, Washington
Current Conditions -  °F | °C
As of 8:02 AM on Tuesday 21 Oct 2014 (Local Time) from KSEA Reporting Station
Broken Clouds Broken Clouds  
Wind Chill: 54°   Ceiling: 3200
Heat Index: 54°   Visibility: 10mi
Dew Point: 50°   Wind: 10mph
Humidity: 88%   Direction: 170°S
Pressure: 29.89"   Gusts: NA
Location:  47.39°N, 122.46°W
Report Text: KSEA 211502Z 17009KT 10SM SCT020 BKN032 BKN050 12/10 A2989 RMK AO2
Loading
Personal Weather Stations






























Interactive Weather Map
Tropical Storm Tracking
New forecast layout! Learn more

10-Day Weather Forecast

Advertisements
Track Severe Weather on mobile